createdAt,value
2017-08-12T00:01:10.107Z,91.60
2017-08-12T00:03:36.403Z,91.70
2017-08-12T00:06:02.698Z,91.70
2017-08-12T00:08:29.000Z,91.80
2017-08-12T00:10:55.279Z,91.80
2017-08-12T00:13:22.335Z,91.90
2017-08-12T00:15:48.636Z,91.90
2017-08-12T00:18:14.919Z,92.00
2017-08-12T00:20:41.229Z,92.00
2017-08-12T00:23:08.259Z,92.40
2017-08-12T00:25:34.571Z,92.00
2017-08-12T00:28:00.867Z,92.00
2017-08-12T00:30:27.156Z,92.00
2017-08-12T00:32:53.452Z,92.00
2017-08-12T00:35:19.715Z,92.10
2017-08-12T00:37:46.040Z,92.00
2017-08-12T00:40:12.312Z,92.00
2017-08-12T00:42:38.681Z,92.00
2017-08-12T00:45:05.103Z,92.10
2017-08-12T00:47:31.442Z,92.00
2017-08-12T00:49:57.768Z,92.00
2017-08-12T00:52:24.035Z,92.10
2017-08-12T00:54:51.118Z,92.10
2017-08-12T00:57:17.394Z,92.10
2017-08-12T00:59:43.683Z,92.10
2017-08-12T01:02:09.957Z,92.20
2017-08-12T01:04:36.231Z,92.60
2017-08-12T01:07:02.563Z,92.30
2017-08-12T01:09:28.902Z,92.30
2017-08-12T01:11:55.217Z,92.30
2017-08-12T01:14:21.536Z,92.40
2017-08-12T01:16:47.868Z,92.30
2017-08-12T01:19:14.192Z,91.90
2017-08-12T01:21:40.519Z,91.90
2017-08-12T01:24:07.575Z,92.00
2017-08-12T01:26:33.855Z,92.00
2017-08-12T01:29:00.135Z,91.80
2017-08-12T01:31:27.316Z,92.00
2017-08-12T01:33:53.636Z,91.70
2017-08-12T01:36:19.937Z,91.90
2017-08-12T01:38:46.236Z,91.90
2017-08-12T01:41:12.552Z,91.90
2017-08-12T01:43:39.032Z,91.80
2017-08-12T01:46:05.455Z,91.70
2017-08-12T01:48:32.516Z,91.60
2017-08-12T01:50:59.543Z,91.70
2017-08-12T01:53:26.600Z,92.20
2017-08-12T01:55:53.644Z,92.00
2017-08-12T01:58:20.918Z,92.20
2017-08-12T02:00:47.234Z,92.10
2017-08-12T02:03:13.559Z,92.20
2017-08-12T02:05:40.597Z,92.30
2017-08-12T02:08:07.651Z,92.40
2017-08-12T02:10:34.688Z,92.60
2017-08-12T02:13:00.956Z,92.20
2017-08-12T02:15:27.255Z,91.90
2017-08-12T02:17:54.330Z,91.80
2017-08-12T02:20:20.607Z,91.80
2017-08-12T02:22:46.928Z,91.80
2017-08-12T02:25:13.232Z,91.90
2017-08-12T02:27:39.544Z,92.00
2017-08-12T02:30:05.850Z,92.00
2017-08-12T02:32:33.100Z,92.10
2017-08-12T02:35:00.160Z,92.20
2017-08-12T02:37:26.449Z,92.20
2017-08-12T02:39:52.761Z,92.20
2017-08-12T02:42:19.212Z,92.30
2017-08-12T02:44:45.491Z,92.50
2017-08-12T02:47:11.947Z,92.30
2017-08-12T02:49:38.247Z,92.40
2017-08-12T02:52:05.304Z,92.50
2017-08-12T02:54:31.665Z,92.50
2017-08-12T02:56:57.966Z,92.50
2017-08-12T02:59:24.296Z,92.60
2017-08-12T03:01:50.591Z,92.60
2017-08-12T03:04:16.904Z,92.60
2017-08-12T03:06:43.191Z,92.70
2017-08-12T03:09:09.473Z,92.80
2017-08-12T03:11:35.836Z,92.80
2017-08-12T03:14:02.868Z,92.70
2017-08-12T03:16:29.920Z,92.70
2017-08-12T03:18:56.963Z,92.70
2017-08-12T03:21:24.011Z,92.50
2017-08-12T03:23:51.094Z,92.30
2017-08-12T03:26:17.412Z,92.30
2017-08-12T03:28:43.699Z,92.20
2017-08-12T03:31:10.008Z,92.30
2017-08-12T03:33:43.263Z,92.20
2017-08-12T03:36:09.531Z,92.20
2017-08-12T03:38:35.847Z,91.90
2017-08-12T03:41:02.124Z,91.70
2017-08-12T03:43:29.203Z,91.70
2017-08-12T03:45:55.507Z,91.70
2017-08-12T03:48:22.548Z,91.90
2017-08-12T03:50:49.605Z,91.70
2017-08-12T03:53:16.814Z,91.80
2017-08-12T03:55:43.152Z,91.80
2017-08-12T03:58:09.472Z,92.00
2017-08-12T04:00:35.740Z,91.80
2017-08-12T04:03:02.035Z,91.70
2017-08-12T04:05:28.308Z,91.80
2017-08-12T04:07:55.352Z,92.10
2017-08-12T04:10:22.372Z,92.20
2017-08-12T04:12:48.731Z,92.20
2017-08-12T04:15:15.785Z,92.40
2017-08-12T04:17:42.979Z,92.30
2017-08-12T04:20:09.312Z,92.30
2017-08-12T04:22:35.585Z,92.10
2017-08-12T04:25:02.637Z,92.10
2017-08-12T04:27:29.664Z,92.10
2017-08-12T04:29:55.927Z,92.10
2017-08-12T04:32:22.218Z,91.90
2017-08-12T04:34:48.520Z,91.50
2017-08-12T04:37:15.033Z,91.30
2017-08-12T04:39:41.408Z,91.40
2017-08-12T04:42:07.709Z,91.40
2017-08-12T04:44:34.003Z,91.50
2017-08-12T04:47:00.284Z,91.60
2017-08-12T04:49:26.600Z,91.70
2017-08-12T04:51:52.920Z,91.00
2017-08-12T04:54:19.228Z,91.00
2017-08-12T04:56:45.583Z,91.10
2017-08-12T04:59:11.871Z,91.20
2017-08-12T05:01:38.915Z,91.30
2017-08-12T05:04:05.280Z,91.30
2017-08-12T05:06:31.596Z,91.00
2017-08-12T05:08:57.860Z,91.20
2017-08-12T05:11:24.215Z,90.90
2017-08-12T05:13:50.560Z,90.90
2017-08-12T05:16:17.149Z,90.90
2017-08-12T05:18:43.451Z,90.70
2017-08-12T05:21:09.775Z,90.60
2017-08-12T05:23:36.882Z,90.60
2017-08-12T05:26:03.235Z,90.60
2017-08-12T05:28:31.103Z,90.30
2017-08-12T05:30:58.128Z,90.20
2017-08-12T05:33:24.467Z,90.20
2017-08-12T05:35:50.803Z,89.70
2017-08-12T05:38:17.200Z,89.10
2017-08-12T05:40:43.475Z,89.00
2017-08-12T05:43:09.772Z,89.60
2017-08-12T05:45:36.051Z,89.80
2017-08-12T05:48:03.101Z,89.00
2017-08-12T05:50:29.425Z,88.90
2017-08-12T05:52:56.443Z,89.40
2017-08-12T05:55:22.727Z,89.20
2017-08-12T05:57:49.039Z,90.00
2017-08-12T06:00:16.083Z,88.90
2017-08-12T06:02:42.388Z,88.90
2017-08-12T06:05:08.704Z,88.90
2017-08-12T06:07:35.028Z,89.00
2017-08-12T06:10:01.440Z,88.70
2017-08-12T06:12:27.796Z,88.00
2017-08-12T06:14:54.144Z,87.40
2017-08-12T06:17:21.219Z,85.80
2017-08-12T06:19:47.687Z,85.80
2017-08-12T06:22:14.007Z,84.80
2017-08-12T06:24:40.412Z,85.00
2017-08-12T06:27:06.705Z,85.10
2017-08-12T06:29:32.991Z,85.30
2017-08-12T06:31:59.297Z,85.60
2017-08-12T06:34:26.363Z,84.40
2017-08-12T06:36:52.668Z,84.30
2017-08-12T06:39:19.693Z,84.90
2017-08-12T06:41:46.025Z,84.90
2017-08-12T06:44:12.292Z,85.00
2017-08-12T06:46:38.589Z,85.00
2017-08-12T06:49:04.974Z,85.70
2017-08-12T06:51:31.300Z,86.20
2017-08-12T06:53:57.760Z,86.00
2017-08-12T06:56:24.117Z,85.60
2017-08-12T06:58:50.459Z,85.20
2017-08-12T07:01:17.536Z,82.70
2017-08-12T07:03:43.828Z,82.70
2017-08-12T07:06:10.140Z,82.00
2017-08-12T07:08:36.423Z,82.40
2017-08-12T07:11:02.736Z,81.70
2017-08-12T07:13:29.783Z,79.80
2017-08-12T07:15:56.847Z,79.80
2017-08-12T07:18:23.240Z,79.60
2017-08-12T07:20:49.504Z,80.50
2017-08-12T07:23:15.791Z,80.70
2017-08-12T07:25:42.056Z,80.00
2017-08-12T07:28:08.364Z,79.30
2017-08-12T07:30:35.416Z,77.30
2017-08-12T07:33:02.515Z,76.70
2017-08-12T07:35:28.800Z,76.60
2017-08-12T07:37:55.142Z,74.80
2017-08-12T07:40:21.431Z,74.10
2017-08-12T07:42:47.730Z,73.70
2017-08-12T07:45:14.052Z,72.50
2017-08-12T07:47:40.347Z,70.70
2017-08-12T07:50:07.373Z,67.90
2017-08-12T07:52:34.466Z,66.50
2017-08-12T07:55:00.760Z,66.40
2017-08-12T07:57:27.061Z,63.70
2017-08-12T07:59:53.562Z,61.50
2017-08-12T08:02:19.890Z,61.10
2017-08-12T08:04:46.181Z,61.80
2017-08-12T08:07:12.476Z,62.90
2017-08-12T08:09:38.801Z,60.60
2017-08-12T08:12:05.119Z,58.90
2017-08-12T08:14:31.423Z,58.50
2017-08-12T08:16:57.711Z,58.70
2017-08-12T08:19:24.028Z,55.70
2017-08-12T08:21:50.348Z,56.90
2017-08-12T08:24:16.615Z,55.20
2017-08-12T08:26:42.935Z,55.40
2017-08-12T08:29:09.240Z,56.00
2017-08-12T08:31:35.547Z,54.40
2017-08-12T08:34:01.848Z,54.50
2017-08-12T08:36:28.143Z,51.10
2017-08-12T08:38:54.468Z,50.60
2017-08-12T08:41:20.783Z,50.30
2017-08-12T08:43:47.209Z,50.30
2017-08-12T08:46:13.488Z,50.00
2017-08-12T08:48:39.802Z,49.90
2017-08-12T08:51:06.125Z,49.00
2017-08-12T08:53:32.445Z,48.80
2017-08-12T08:55:58.744Z,48.20
2017-08-12T08:58:25.069Z,48.80
2017-08-12T09:00:51.428Z,49.40
2017-08-12T09:03:17.732Z,50.30
2017-08-12T09:05:44.028Z,50.60
2017-08-12T09:08:10.332Z,51.10
2017-08-12T09:10:36.652Z,52.60
2017-08-12T09:13:03.150Z,53.50
2017-08-12T09:15:29.484Z,54.30
2017-08-12T09:17:55.896Z,55.50
2017-08-12T09:20:22.963Z,56.50
2017-08-12T09:22:49.283Z,56.40
2017-08-12T09:25:15.598Z,56.80
2017-08-12T09:27:41.944Z,56.80
2017-08-12T09:30:09.008Z,56.60
2017-08-12T09:32:35.295Z,56.60
2017-08-12T09:35:01.622Z,57.10
2017-08-12T09:37:27.927Z,57.10
2017-08-12T09:39:54.232Z,57.60
2017-08-12T09:42:20.537Z,56.60
2017-08-12T09:44:47.591Z,56.60
2017-08-12T09:47:13.891Z,56.60
2017-08-12T09:49:40.173Z,57.80
2017-08-12T09:52:06.511Z,57.90
2017-08-12T09:54:32.845Z,58.90
2017-08-12T09:56:59.148Z,59.30
2017-08-12T09:59:25.475Z,59.70
2017-08-12T10:01:51.781Z,59.60
2017-08-12T10:04:18.098Z,59.90
2017-08-12T10:06:45.265Z,60.30
2017-08-12T10:09:12.307Z,59.50
2017-08-12T10:11:39.379Z,59.90
2017-08-12T10:14:05.685Z,59.40
2017-08-12T10:16:32.707Z,61.40
2017-08-12T10:18:59.091Z,60.80
2017-08-12T10:21:25.476Z,61.30
2017-08-12T10:23:51.779Z,61.40
2017-08-12T10:26:18.148Z,61.70
2017-08-12T10:28:45.204Z,62.30
2017-08-12T10:31:11.748Z,61.60
2017-08-12T10:33:38.091Z,62.40
2017-08-12T10:36:05.123Z,63.80
2017-08-12T10:38:32.206Z,65.20
2017-08-12T10:40:58.517Z,65.20
2017-08-12T10:43:24.852Z,65.80
2017-08-12T10:45:51.192Z,64.70
2017-08-12T10:48:17.501Z,64.90
2017-08-12T10:50:43.828Z,64.90
2017-08-12T10:53:10.896Z,65.50
2017-08-12T10:55:37.269Z,65.40
2017-08-12T10:58:03.740Z,65.80
2017-08-12T11:00:30.875Z,64.50
2017-08-12T11:02:57.966Z,64.20
2017-08-12T11:05:24.264Z,64.10
2017-08-12T11:07:50.596Z,63.90
2017-08-12T11:10:16.941Z,63.40
2017-08-12T11:12:43.351Z,64.60
2017-08-12T11:15:09.666Z,65.80
2017-08-12T11:17:35.983Z,65.40
2017-08-12T11:20:02.329Z,66.40
2017-08-12T11:22:29.386Z,67.70
2017-08-12T11:24:55.664Z,68.00
2017-08-12T11:27:22.000Z,67.70
2017-08-12T11:29:48.279Z,67.30
2017-08-12T11:32:15.347Z,68.30
2017-08-12T11:34:41.659Z,68.30
2017-08-12T11:37:08.864Z,66.80
2017-08-12T11:39:35.365Z,66.80
2017-08-12T11:42:01.689Z,65.80
2017-08-12T11:44:28.785Z,60.80
2017-08-12T11:46:55.100Z,60.70
2017-08-12T11:49:21.447Z,60.30
2017-08-12T11:51:47.720Z,61.80
2017-08-12T11:54:14.807Z,61.80
2017-08-12T11:56:41.123Z,61.80
2017-08-12T11:59:07.481Z,62.70
2017-08-12T12:01:33.761Z,62.90
2017-08-12T12:04:00.076Z,63.60
2017-08-12T12:06:26.385Z,63.80
2017-08-12T12:08:52.724Z,64.70
2017-08-12T12:11:19.091Z,63.50
2017-08-12T12:13:45.408Z,63.90
2017-08-12T12:16:12.436Z,63.70
2017-08-12T12:18:38.763Z,63.70
2017-08-12T12:21:05.209Z,64.70
2017-08-12T12:23:31.487Z,63.70
2017-08-12T12:25:57.771Z,64.90
2017-08-12T12:28:24.848Z,65.60
2017-08-12T12:30:51.141Z,65.50
2017-08-12T12:33:17.433Z,65.10
2017-08-12T12:35:43.732Z,65.20
2017-08-12T12:38:10.064Z,65.50
2017-08-12T12:40:36.401Z,66.30
2017-08-12T12:43:02.706Z,65.40
2017-08-12T12:45:29.040Z,65.50
2017-08-12T12:47:56.097Z,65.20
2017-08-12T12:50:22.563Z,65.20
2017-08-12T12:52:48.944Z,64.90
2017-08-12T12:55:15.967Z,63.90
2017-08-12T12:57:42.311Z,63.90
2017-08-12T13:00:08.770Z,63.30
2017-08-12T13:02:35.067Z,63.90
2017-08-12T13:05:01.396Z,62.70
2017-08-12T13:07:27.718Z,63.20
2017-08-12T13:09:54.039Z,63.00
2017-08-12T13:12:20.318Z,63.70
2017-08-12T13:14:46.655Z,64.30
2017-08-12T13:17:12.981Z,64.20
2017-08-12T13:19:39.400Z,64.70
2017-08-12T13:22:06.500Z,65.00
2017-08-12T13:24:32.796Z,64.90
2017-08-12T13:26:59.140Z,65.30
2017-08-12T13:29:25.488Z,65.20
2017-08-12T13:31:51.782Z,65.20
2017-08-12T13:34:18.143Z,65.20
2017-08-12T13:36:44.453Z,65.10
2017-08-12T13:39:10.759Z,65.40
2017-08-12T13:41:37.833Z,65.90
2017-08-12T13:44:04.158Z,65.90
2017-08-12T13:46:30.518Z,65.50
2017-08-12T13:48:56.904Z,64.60
2017-08-12T13:51:23.928Z,63.90
2017-08-12T13:53:50.232Z,64.60
2017-08-12T13:56:16.544Z,63.40
2017-08-12T13:58:42.868Z,63.40
2017-08-12T14:01:09.164Z,63.20
2017-08-12T14:03:35.539Z,63.00
2017-08-12T14:06:01.852Z,63.20
2017-08-12T14:08:28.152Z,63.40
2017-08-12T14:10:55.360Z,64.40
2017-08-12T14:13:21.652Z,64.40
2017-08-12T14:15:47.960Z,64.40
2017-08-12T14:18:14.263Z,64.90
2017-08-12T14:20:40.616Z,65.70
2017-08-12T14:23:06.908Z,66.20
2017-08-12T14:25:33.227Z,67.70
2017-08-12T14:27:59.747Z,68.10
2017-08-12T14:30:26.038Z,68.60
2017-08-12T14:32:52.368Z,68.10
2017-08-12T14:35:18.717Z,68.70
2017-08-12T14:37:45.755Z,70.30
2017-08-12T14:40:12.834Z,70.70
2017-08-12T14:42:39.135Z,70.60
2017-08-12T14:45:06.195Z,70.00
2017-08-12T14:47:33.227Z,70.00
2017-08-12T14:50:00.283Z,71.20
2017-08-12T14:52:27.347Z,71.30
2017-08-12T14:54:53.644Z,71.30
2017-08-12T14:57:19.964Z,72.00
2017-08-12T14:59:46.239Z,72.30
2017-08-12T15:02:12.532Z,72.80
2017-08-12T15:04:40.479Z,72.80
2017-08-12T15:07:06.816Z,72.60
2017-08-12T15:09:33.196Z,72.30
2017-08-12T15:11:59.530Z,72.10
2017-08-12T15:14:25.840Z,71.90
2017-08-12T15:16:52.957Z,72.00
2017-08-12T15:19:20.036Z,73.00
2017-08-12T15:21:46.383Z,72.40
2017-08-12T15:24:12.821Z,73.00
2017-08-12T15:26:39.211Z,73.50
2017-08-12T15:29:05.692Z,73.50
2017-08-12T15:31:32.047Z,74.00
2017-08-12T15:33:58.356Z,74.00
2017-08-12T15:36:24.682Z,74.40
2017-08-12T15:38:57.947Z,74.40
2017-08-12T15:41:25.019Z,75.80
2017-08-12T15:43:51.327Z,75.70
2017-08-12T15:46:18.416Z,74.90
2017-08-12T15:48:44.776Z,74.80
2017-08-12T15:51:11.075Z,74.50
2017-08-12T15:53:37.416Z,74.30
2017-08-12T15:56:03.871Z,74.00
2017-08-12T15:58:30.164Z,74.30
2017-08-12T16:00:56.465Z,74.70
2017-08-12T16:03:23.535Z,75.50
2017-08-12T16:05:49.830Z,75.30
2017-08-12T16:08:16.916Z,76.30
2017-08-12T16:10:43.233Z,76.20
2017-08-12T16:13:09.598Z,76.10
2017-08-12T16:15:35.899Z,75.50
2017-08-12T16:18:02.228Z,75.80
2017-08-12T16:20:28.573Z,76.00
2017-08-12T16:22:54.883Z,76.10
2017-08-12T16:25:21.216Z,75.70
2017-08-12T16:27:47.548Z,75.70
2017-08-12T16:30:13.832Z,75.70
2017-08-12T16:32:40.147Z,75.90
2017-08-12T16:35:06.492Z,76.10
2017-08-12T16:37:32.834Z,76.30
2017-08-12T16:39:59.117Z,76.70
2017-08-12T16:42:25.600Z,76.70
2017-08-12T16:44:52.643Z,77.30
2017-08-12T16:47:18.952Z,77.20
2017-08-12T16:49:45.266Z,76.80
2017-08-12T16:52:11.587Z,76.80
2017-08-12T16:54:37.901Z,76.50
2017-08-12T16:57:04.241Z,76.00
2017-08-12T16:59:30.568Z,76.60
2017-08-12T17:01:56.969Z,76.70
2017-08-12T17:04:24.009Z,76.70
2017-08-12T17:06:51.144Z,76.90
2017-08-12T17:09:17.416Z,76.80
2017-08-12T17:11:43.762Z,76.70
2017-08-12T17:14:10.060Z,77.30
2017-08-12T17:16:37.239Z,77.70
2017-08-12T17:19:03.559Z,77.60
2017-08-12T17:21:29.861Z,77.40
2017-08-12T17:23:56.989Z,77.90
2017-08-12T17:26:23.332Z,77.90
2017-08-12T17:28:49.663Z,78.40
2017-08-12T17:31:15.970Z,78.80
2017-08-12T17:33:42.284Z,79.50
2017-08-12T17:36:08.606Z,79.70
2017-08-12T17:38:34.900Z,80.20
2017-08-12T17:41:01.970Z,81.10
2017-08-12T17:43:28.301Z,80.90
2017-08-12T17:45:54.633Z,80.60
2017-08-12T17:48:21.117Z,80.80
2017-08-12T17:50:48.160Z,81.80
2017-08-12T17:53:14.452Z,81.80
2017-08-12T17:55:40.753Z,82.30
2017-08-12T17:58:07.079Z,82.90
2017-08-12T18:00:34.121Z,83.70
2017-08-12T18:03:01.175Z,84.00
2017-08-12T18:05:28.214Z,84.40
2017-08-12T18:07:55.299Z,84.80
2017-08-12T18:10:21.627Z,84.70
2017-08-12T18:12:47.925Z,85.00
2017-08-12T18:15:15.007Z,85.20
2017-08-12T18:17:41.331Z,85.10
2017-08-12T18:20:07.649Z,85.40
2017-08-12T18:22:34.002Z,85.40
2017-08-12T18:25:00.312Z,85.80
2017-08-12T18:27:26.655Z,86.10
2017-08-12T18:29:52.970Z,86.00
2017-08-12T18:32:20.441Z,86.40
2017-08-12T18:34:46.769Z,87.20
2017-08-12T18:37:13.118Z,87.00
2017-08-12T18:39:39.423Z,87.00
2017-08-12T18:42:05.770Z,87.30
2017-08-12T18:44:32.108Z,87.40
2017-08-12T18:46:58.602Z,87.80
2017-08-12T18:49:24.963Z,87.70
2017-08-12T18:51:51.401Z,87.70
2017-08-12T18:54:17.782Z,87.70
2017-08-12T18:56:44.920Z,87.70
2017-08-12T18:59:11.374Z,87.60
2017-08-12T19:01:38.455Z,88.30
2017-08-12T19:04:04.770Z,88.20
2017-08-12T19:06:31.090Z,88.20
2017-08-12T19:08:58.159Z,89.00
2017-08-12T19:11:24.478Z,89.10
2017-08-12T19:13:50.989Z,89.30
2017-08-12T19:16:18.068Z,89.50
2017-08-12T19:18:44.369Z,89.50
2017-08-12T19:21:11.431Z,89.30
2017-08-12T19:23:37.780Z,89.30
2017-08-12T19:26:04.117Z,89.50
2017-08-12T19:28:30.430Z,89.80
2017-08-12T19:30:56.883Z,90.00
2017-08-12T19:33:23.233Z,90.10
2017-08-12T19:35:49.614Z,90.20
2017-08-12T19:38:16.674Z,90.30
2017-08-12T19:40:43.088Z,90.30
2017-08-12T19:43:10.121Z,90.00
2017-08-12T19:45:36.479Z,90.00
2017-08-12T19:48:02.808Z,90.10
2017-08-12T19:50:29.266Z,90.10
2017-08-12T19:52:55.583Z,90.20
2017-08-12T19:55:21.940Z,90.10
2017-08-12T19:57:48.258Z,89.60
2017-08-12T20:00:14.580Z,89.80
2017-08-12T20:02:40.904Z,89.40
2017-08-12T20:05:07.256Z,88.80
2017-08-12T20:07:33.583Z,88.80
2017-08-12T20:09:59.907Z,88.80
2017-08-12T20:12:26.211Z,88.80
2017-08-12T20:14:52.531Z,89.70
2017-08-12T20:17:19.623Z,88.80
2017-08-12T20:19:45.925Z,88.80
2017-08-12T20:22:12.274Z,88.90
2017-08-12T20:24:38.578Z,89.10
2017-08-12T20:27:05.650Z,88.60
2017-08-12T20:29:32.011Z,88.50
2017-08-12T20:31:58.344Z,88.50
2017-08-12T20:34:24.693Z,88.50
2017-08-12T20:36:51.006Z,88.60
2017-08-12T20:39:17.447Z,88.60
2017-08-12T20:41:43.816Z,88.60
2017-08-12T20:44:10.136Z,88.60
2017-08-12T20:46:37.372Z,87.20
2017-08-12T20:49:03.653Z,87.10
2017-08-12T20:51:29.924Z,87.30
2017-08-12T20:53:56.398Z,87.10
2017-08-12T20:56:22.705Z,87.60
2017-08-12T20:58:49.056Z,87.80
2017-08-12T21:01:15.332Z,87.70
2017-08-12T21:03:44.558Z,87.60
2017-08-12T21:06:11.623Z,87.70
2017-08-12T21:08:37.918Z,87.60
2017-08-12T21:11:04.269Z,87.40
2017-08-12T21:13:31.325Z,87.20
2017-08-12T21:15:57.716Z,87.10
2017-08-12T21:18:24.009Z,87.60
2017-08-12T21:20:50.340Z,87.30
2017-08-12T21:23:16.628Z,87.20
2017-08-12T21:25:43.755Z,87.00
2017-08-12T21:28:10.089Z,87.00
2017-08-12T21:30:36.385Z,86.50
2017-08-12T21:33:02.689Z,86.80
2017-08-12T21:35:29.010Z,86.80
2017-08-12T21:37:56.048Z,86.80
2017-08-12T21:40:23.133Z,87.80
2017-08-12T21:42:49.431Z,87.10
2017-08-12T21:45:16.484Z,86.40
2017-08-12T21:47:43.585Z,86.40
2017-08-12T21:50:09.864Z,86.40
2017-08-12T21:52:36.933Z,86.40
2017-08-12T21:55:03.229Z,86.40
2017-08-12T21:57:30.265Z,87.40
2017-08-12T21:59:57.329Z,87.60
2017-08-12T22:02:24.533Z,87.60
2017-08-12T22:04:50.843Z,87.60
2017-08-12T22:07:17.279Z,87.60
2017-08-12T22:09:43.590Z,87.60
2017-08-12T22:12:09.908Z,87.90
2017-08-12T22:14:36.997Z,87.80
2017-08-12T22:17:03.369Z,87.80
2017-08-12T22:19:30.420Z,87.40
2017-08-12T22:21:56.804Z,87.30
2017-08-12T22:24:23.239Z,87.40
2017-08-12T22:26:49.553Z,87.70
2017-08-12T22:29:15.843Z,87.30
2017-08-12T22:31:42.231Z,87.40
2017-08-12T22:34:08.527Z,87.00
2017-08-12T22:36:34.814Z,86.90
2017-08-12T22:39:01.151Z,87.30
2017-08-12T22:41:27.497Z,87.70
2017-08-12T22:43:54.553Z,87.90
2017-08-12T22:46:21.590Z,87.90
2017-08-12T22:48:48.645Z,87.90
2017-08-12T22:51:15.681Z,87.80
2017-08-12T22:53:41.980Z,87.80
2017-08-12T22:56:08.277Z,87.80
2017-08-12T22:58:34.588Z,88.00
2017-08-12T23:01:00.920Z,88.00
2017-08-12T23:03:27.997Z,88.50
2017-08-12T23:05:54.300Z,88.50
2017-08-12T23:08:21.388Z,87.60
2017-08-12T23:10:47.714Z,87.50
2017-08-12T23:13:13.976Z,87.10
2017-08-12T23:15:41.035Z,87.70
2017-08-12T23:18:07.339Z,86.90
2017-08-12T23:20:33.636Z,86.90
2017-08-12T23:22:59.957Z,87.30
2017-08-12T23:25:26.235Z,87.30
2017-08-12T23:27:52.547Z,87.30
2017-08-12T23:30:19.156Z,87.70
2017-08-12T23:32:45.443Z,87.40
2017-08-12T23:35:11.725Z,87.40
2017-08-12T23:37:38.013Z,87.40
2017-08-12T23:40:05.204Z,87.40
2017-08-12T23:42:31.487Z,88.00
2017-08-12T23:44:57.816Z,87.60
2017-08-12T23:47:24.987Z,87.80
2017-08-12T23:49:52.028Z,87.90
2017-08-12T23:52:19.095Z,87.40
2017-08-12T23:54:45.396Z,87.30
2017-08-12T23:57:12.463Z,88.00
